Cusick, Washington
Current Conditions -  °F | °C
As of 1:53 AM on Thursday 27 Nov 2014 (Local Time) from KDEW Reporting Station
Haze Haze  
Wind Chill:   Ceiling: 7500
Heat Index:   Visibility: 3mi
Dew Point:   Wind: 5mph
Humidity: 96%   Direction: 60°ENE
Pressure: 29.92"   Gusts: NA
Location:  48.34°N, 117.3°W
Report Text: KDEW 270953Z AUTO 06004KT 3SM BR BKN075 OVC100 03/02 A2992 RMK AO2 SLP146 T00280022
Loading
Personal Weather Stations






























Interactive Weather Map New forecast layout! Learn more

10-Day Weather Forecast

Advertisements
Track Severe Weather on mobile